createdAt,value
2023-05-03T00:01:01.501Z,100957.52
2023-05-03T00:03:28.576Z,100955.23
2023-05-03T00:05:55.407Z,100957.14
2023-05-03T00:08:22.257Z,100959.96
2023-05-03T00:10:49.032Z,100959.13
2023-05-03T00:13:15.991Z,100962.53
2023-05-03T00:15:42.793Z,100964.77
2023-05-03T00:18:09.593Z,100966.17
2023-05-03T00:20:37.030Z,100965.86
2023-05-03T00:23:04.590Z,100970.73
2023-05-03T00:25:31.467Z,100969.02
2023-05-03T00:27:58.254Z,100970.76
2023-05-03T00:30:25.733Z,100970.89
2023-05-03T00:32:52.488Z,100977.55
2023-05-03T00:35:19.841Z,100980.23
2023-05-03T00:37:46.680Z,100979.98
2023-05-03T00:40:18.869Z,100983.27
2023-05-03T00:42:48.663Z,100981.40
2023-05-03T00:45:15.525Z,100982.40
2023-05-03T00:47:42.665Z,100982.05
2023-05-03T00:50:11.987Z,100981.11
2023-05-03T00:52:39.443Z,100985.10
2023-05-03T00:55:08.856Z,100984.58
2023-05-03T00:57:36.136Z,100986.48
2023-05-03T01:00:04.382Z,100990.50
2023-05-03T01:02:31.646Z,100991.70
2023-05-03T01:04:58.550Z,100986.96
2023-05-03T01:07:31.487Z,100987.27
2023-05-03T01:10:15.365Z,100984.21
2023-05-03T01:12:51.370Z,100982.65
2023-05-03T01:15:25.968Z,100979.70
2023-05-03T01:17:54.839Z,100980.28
2023-05-03T01:20:24.870Z,100981.55
2023-05-03T01:22:58.062Z,100983.45
2023-05-03T01:25:25.100Z,100981.68
2023-05-03T01:27:51.872Z,100983.30
2023-05-03T01:30:18.957Z,100981.05
2023-05-03T01:32:46.169Z,100982.27
2023-05-03T01:35:16.242Z,100976.05
2023-05-03T01:37:43.406Z,100981.39
2023-05-03T01:40:10.578Z,100983.27
2023-05-03T01:42:37.658Z,100984.77
2023-05-03T01:45:04.970Z,100991.47
2023-05-03T01:47:31.768Z,100988.72
2023-05-03T01:49:59.533Z,100991.16
2023-05-03T01:52:26.940Z,100991.40
2023-05-03T01:54:53.789Z,100984.10
2023-05-03T01:57:20.628Z,100987.58
2023-05-03T01:59:47.482Z,100986.83
2023-05-03T02:02:14.740Z,100985.95
2023-05-03T02:04:41.707Z,100989.96
2023-05-03T02:07:09.389Z,100987.88
2023-05-03T02:09:36.374Z,100991.83
2023-05-03T02:12:03.244Z,100997.27
2023-05-03T02:14:30.106Z,101005.49
2023-05-03T02:16:56.997Z,101005.27
2023-05-03T02:19:23.854Z,101005.59
2023-05-03T02:21:50.765Z,101005.14
2023-05-03T02:24:17.727Z,101011.35
2023-05-03T02:26:44.568Z,101012.73
2023-05-03T02:29:11.388Z,101014.91
2023-05-03T02:31:38.250Z,101016.66
2023-05-03T02:34:05.211Z,101013.89
2023-05-03T02:36:32.176Z,101014.02
2023-05-03T02:38:59.921Z,101011.76
2023-05-03T02:41:27.278Z,101017.02
2023-05-03T02:43:54.114Z,101023.70
2023-05-03T02:46:20.967Z,101023.57
2023-05-03T02:48:47.837Z,101026.27
2023-05-03T02:51:14.592Z,101029.02
2023-05-03T02:53:41.637Z,101029.60
2023-05-03T02:56:09.947Z,101026.52
2023-05-03T02:58:37.064Z,101027.95
2023-05-03T03:01:04.583Z,101030.00
2023-05-03T03:03:31.467Z,101028.63
2023-05-03T03:05:58.417Z,101029.58
2023-05-03T03:08:25.266Z,101024.84
2023-05-03T03:10:52.688Z,101023.93
2023-05-03T03:13:19.500Z,101024.50
2023-05-03T03:15:46.410Z,101029.81
2023-05-03T03:18:13.247Z,101029.32
2023-05-03T03:20:40.031Z,101028.80
2023-05-03T03:23:07.481Z,101032.45
2023-05-03T03:25:34.317Z,101035.23
2023-05-03T03:28:01.430Z,101037.89
2023-05-03T03:30:28.496Z,101045.02
2023-05-03T03:33:15.005Z,101042.03
2023-05-03T03:35:42.091Z,101048.45
2023-05-03T03:38:09.246Z,101051.48
2023-05-03T03:40:37.121Z,101054.31
2023-05-03T03:43:04.299Z,101053.58
2023-05-03T03:45:31.431Z,101054.92
2023-05-03T03:47:58.738Z,101051.18
2023-05-03T03:50:26.052Z,101053.77
2023-05-03T03:52:52.947Z,101056.62
2023-05-03T03:55:20.153Z,101057.54
2023-05-03T03:57:47.511Z,101057.23
2023-05-03T04:00:14.990Z,101058.42
2023-05-03T04:02:44.970Z,101061.16
2023-05-03T04:05:16.210Z,101060.16
2023-05-03T04:07:44.249Z,101056.82
2023-05-03T04:10:11.444Z,101057.67
2023-05-03T04:12:39.318Z,101061.52
2023-05-03T04:15:06.538Z,101061.41
2023-05-03T04:17:35.261Z,101057.89
2023-05-03T04:20:14.055Z,101062.10
2023-05-03T04:22:43.831Z,101064.95
2023-05-03T04:25:14.334Z,101064.42
2023-05-03T04:27:42.808Z,101064.04
2023-05-03T04:30:10.861Z,101062.36
2023-05-03T04:32:38.057Z,101060.81
2023-05-03T04:35:09.622Z,101063.80
2023-05-03T04:37:38.147Z,101059.17
2023-05-03T04:40:09.868Z,101054.83
2023-05-03T04:42:37.337Z,101057.53
2023-05-03T04:45:06.923Z,101056.02
2023-05-03T04:47:35.364Z,101059.69
2023-05-03T04:50:02.554Z,101061.16
2023-05-03T04:52:30.713Z,101057.35
2023-05-03T04:54:57.685Z,101054.90
2023-05-03T04:57:24.572Z,101058.54
2023-05-03T04:59:54.283Z,101060.88
2023-05-03T05:02:21.871Z,101062.28
2023-05-03T05:04:49.432Z,101063.27
2023-05-03T05:07:43.099Z,101064.00
2023-05-03T05:10:11.342Z,101066.29
2023-05-03T05:12:38.406Z,101067.05
2023-05-03T05:15:06.304Z,101069.34
2023-05-03T05:17:33.216Z,101070.37
2023-05-03T05:20:01.258Z,101068.16
2023-05-03T05:22:28.794Z,101065.48
2023-05-03T05:24:58.407Z,101066.84
2023-05-03T05:27:27.041Z,101067.66
2023-05-03T05:29:54.190Z,101069.79
2023-05-03T05:32:22.621Z,101073.30
2023-05-03T05:34:55.887Z,101072.84
2023-05-03T05:37:24.851Z,101072.48
2023-05-03T05:39:53.201Z,101074.80
2023-05-03T05:42:21.068Z,101076.09
2023-05-03T05:44:49.451Z,101075.36
2023-05-03T05:47:16.589Z,101073.31
2023-05-03T05:49:43.827Z,101073.14
2023-05-03T05:52:11.646Z,101077.34
2023-05-03T05:54:38.804Z,101075.77
2023-05-03T05:57:05.960Z,101081.46
2023-05-03T05:59:33.152Z,101082.34
2023-05-03T06:02:01.672Z,101081.84
2023-05-03T06:04:35.596Z,101078.85
2023-05-03T06:07:02.836Z,101074.90
2023-05-03T06:09:29.677Z,101073.50
2023-05-03T06:12:01.549Z,101072.02
2023-05-03T06:14:30.960Z,101074.33
2023-05-03T06:16:59.493Z,101080.82
2023-05-03T06:19:28.634Z,101079.28
2023-05-03T06:21:55.722Z,101081.14
2023-05-03T06:24:22.694Z,101075.05
2023-05-03T06:26:53.512Z,101078.20
2023-05-03T06:29:21.041Z,101070.29
2023-05-03T06:31:47.934Z,101067.65
2023-05-03T06:34:24.904Z,101066.68
2023-05-03T06:36:53.405Z,101065.77
2023-05-03T06:39:20.345Z,101064.48
2023-05-03T06:41:49.863Z,101064.50
2023-05-03T06:44:18.029Z,101068.09
2023-05-03T06:46:46.165Z,101068.48
2023-05-03T06:49:13.059Z,101072.06
2023-05-03T06:51:40.720Z,101073.42
2023-05-03T06:54:09.375Z,101074.10
2023-05-03T06:57:04.090Z,101074.34
2023-05-03T06:59:35.345Z,101075.73
2023-05-03T07:02:02.229Z,101071.47
2023-05-03T07:04:35.451Z,101068.89
2023-05-03T07:07:20.268Z,101066.13
2023-05-03T07:09:50.725Z,101062.92
2023-05-03T07:12:17.717Z,101062.38
2023-05-03T07:14:44.845Z,101061.20
2023-05-03T07:17:17.077Z,101056.78
2023-05-03T07:19:54.364Z,101062.11
2023-05-03T07:22:45.752Z,101060.42
2023-05-03T07:25:14.826Z,101060.77
2023-05-03T07:27:42.162Z,101066.00
2023-05-03T07:30:09.766Z,101067.45
2023-05-03T07:32:36.862Z,101061.09
2023-05-03T07:35:04.190Z,101059.90
2023-05-03T07:37:31.646Z,101061.41
2023-05-03T07:39:58.477Z,101062.42
2023-05-03T07:42:28.784Z,101068.45
2023-05-03T07:44:55.858Z,101071.33
2023-05-03T07:47:22.776Z,101071.15
2023-05-03T07:49:52.058Z,101071.96
2023-05-03T07:52:23.493Z,101063.54
2023-05-03T07:54:50.474Z,101064.22
2023-05-03T07:57:17.632Z,101066.55
2023-05-03T07:59:44.756Z,101065.08
2023-05-03T08:02:11.714Z,101066.12
2023-05-03T08:04:38.973Z,101068.22
2023-05-03T08:07:06.112Z,101070.05
2023-05-03T08:09:32.911Z,101066.96
2023-05-03T08:11:59.661Z,101068.60
2023-05-03T08:14:28.099Z,101065.06
2023-05-03T08:16:54.936Z,101059.38
2023-05-03T08:19:22.704Z,101061.16
2023-05-03T08:21:49.506Z,101057.11
2023-05-03T08:24:16.729Z,101052.42
2023-05-03T08:26:46.312Z,101050.88
2023-05-03T08:29:13.087Z,101045.90
2023-05-03T08:31:40.176Z,101045.52
2023-05-03T08:34:08.029Z,101047.95
2023-05-03T08:36:35.951Z,101043.31
2023-05-03T08:39:06.430Z,101041.88
2023-05-03T08:41:33.449Z,101040.09
2023-05-03T08:44:00.723Z,101036.59
2023-05-03T08:46:28.482Z,101036.24
2023-05-03T08:48:58.867Z,101036.52
2023-05-03T08:51:25.868Z,101038.05
2023-05-03T08:53:55.716Z,101038.91
2023-05-03T08:56:33.857Z,101038.10
2023-05-03T08:59:07.903Z,101036.14
2023-05-03T09:01:41.609Z,101035.17
2023-05-03T09:04:09.114Z,101030.64
2023-05-03T09:06:36.989Z,101031.94
2023-05-03T09:09:08.247Z,101037.92
2023-05-03T09:11:36.145Z,101032.52
2023-05-03T09:14:16.385Z,101029.15
2023-05-03T09:16:46.977Z,101026.73
2023-05-03T09:19:14.721Z,101028.90
2023-05-03T09:21:42.167Z,101028.30
2023-05-03T09:24:22.810Z,101025.42
2023-05-03T09:26:50.394Z,101021.44
2023-05-03T09:29:36.953Z,101021.14
2023-05-03T09:32:08.968Z,101019.86
2023-05-03T09:34:37.295Z,101019.45
2023-05-03T09:37:04.314Z,101015.27
2023-05-03T09:39:31.633Z,101014.58
2023-05-03T09:41:58.821Z,101008.33
2023-05-03T09:44:41.539Z,101008.48
2023-05-03T09:47:08.620Z,101006.98
2023-05-03T09:49:37.366Z,101004.64
2023-05-03T09:52:08.117Z,101008.23
2023-05-03T09:54:38.049Z,101005.08
2023-05-03T09:57:05.859Z,101006.59
2023-05-03T09:59:33.289Z,101004.23
2023-05-03T10:02:01.896Z,101003.44
2023-05-03T10:05:18.335Z,100997.92
2023-05-03T10:07:46.484Z,100999.03
2023-05-03T10:10:41.449Z,100998.86
2023-05-03T10:13:10.243Z,100994.35
2023-05-03T10:15:38.282Z,100995.54
2023-05-03T10:18:06.770Z,100994.59
2023-05-03T10:20:35.241Z,100990.96
2023-05-03T10:23:05.182Z,100989.74
2023-05-03T10:25:32.792Z,100989.38
2023-05-03T10:28:06.253Z,100987.13
2023-05-03T10:30:34.738Z,100985.63
2023-05-03T10:33:14.338Z,100983.89
2023-05-03T10:35:51.215Z,100991.48
2023-05-03T10:38:20.633Z,100990.40
2023-05-03T10:40:47.583Z,100987.98
2023-05-03T10:43:30.090Z,100987.63
2023-05-03T10:46:00.532Z,100985.34
2023-05-03T10:48:28.682Z,100979.73
2023-05-03T10:50:55.977Z,100985.56
2023-05-03T10:53:35.504Z,100984.48
2023-05-03T10:56:03.762Z,100981.17
2023-05-03T10:58:30.794Z,100981.73
2023-05-03T11:00:57.583Z,100980.41
2023-05-03T11:03:44.956Z,100979.52
2023-05-03T11:06:26.818Z,100971.09
2023-05-03T11:08:53.923Z,100968.23
2023-05-03T11:11:21.232Z,100970.31
2023-05-03T11:13:48.267Z,100970.86
2023-05-03T11:16:15.196Z,100976.91
2023-05-03T11:18:42.136Z,100973.39
2023-05-03T11:21:09.037Z,100969.84
2023-05-03T11:23:38.181Z,100966.02
2023-05-03T11:26:08.590Z,100962.50
2023-05-03T11:28:35.679Z,100961.07
2023-05-03T11:31:02.577Z,100956.15
2023-05-03T11:33:32.342Z,100956.23
2023-05-03T11:35:59.129Z,100955.23
2023-05-03T11:38:26.168Z,100953.55
2023-05-03T11:40:53.282Z,100955.32
2023-05-03T11:43:20.133Z,100952.42
2023-05-03T11:45:47.157Z,100951.84
2023-05-03T11:48:14.429Z,100951.55
2023-05-03T11:50:45.887Z,100947.60
2023-05-03T11:53:16.222Z,100947.30
2023-05-03T11:55:43.487Z,100945.20
2023-05-03T11:58:20.670Z,100946.14
2023-05-03T12:00:49.358Z,100946.65
2023-05-03T12:03:25.419Z,100941.03
2023-05-03T12:05:54.836Z,100937.31
2023-05-03T12:08:23.525Z,100936.93
2023-05-03T12:10:54.958Z,100936.90
2023-05-03T12:13:30.457Z,100932.74
2023-05-03T12:18:47.377Z,100935.88
2023-05-03T12:23:46.126Z,100930.09
2023-05-03T12:26:14.494Z,100926.50
2023-05-03T12:28:41.962Z,100921.86
2023-05-03T12:31:09.495Z,100919.38
2023-05-03T12:33:38.800Z,100917.32
2023-05-03T12:36:09.845Z,100915.03
2023-05-03T12:38:37.787Z,100914.73
2023-05-03T12:41:08.629Z,100917.02
2023-05-03T12:43:36.565Z,100914.45
2023-05-03T12:46:25.135Z,100914.26
2023-05-03T12:48:53.797Z,100908.84
2023-05-03T12:51:25.640Z,100907.08
2023-05-03T12:53:55.323Z,100898.98
2023-05-03T12:56:24.796Z,100896.28
2023-05-03T12:59:14.863Z,100891.55
2023-05-03T13:04:44.025Z,100888.36
2023-05-03T13:06:59.348Z,100887.34
2023-05-03T13:09:38.055Z,100880.30
2023-05-03T13:12:14.746Z,100878.98
2023-05-03T13:14:43.815Z,100880.20
2023-05-03T13:17:12.160Z,100878.41
2023-05-03T13:19:39.160Z,100875.35
2023-05-03T13:22:06.017Z,100874.14
2023-05-03T13:24:32.924Z,100875.39
2023-05-03T13:27:00.195Z,100876.48
2023-05-03T13:29:27.178Z,100874.98
2023-05-03T13:31:54.340Z,100876.30
2023-05-03T13:34:21.683Z,100875.63
2023-05-03T13:36:48.801Z,100866.89
2023-05-03T13:39:15.880Z,100867.04
2023-05-03T13:41:43.577Z,100871.05
2023-05-03T13:44:11.799Z,100866.60
2023-05-03T13:46:39.178Z,100869.63
2023-05-03T13:49:06.232Z,100868.17
2023-05-03T13:51:33.656Z,100864.36
2023-05-03T13:54:00.918Z,100863.91
2023-05-03T13:56:27.941Z,100864.70
2023-05-03T13:58:57.784Z,100865.70
2023-05-03T14:01:25.107Z,100866.04
2023-05-03T14:03:52.405Z,100861.48
2023-05-03T14:06:20.246Z,100862.48
2023-05-03T14:08:50.425Z,100865.50
2023-05-03T14:11:17.953Z,100864.27
2023-05-03T14:13:56.348Z,100862.87
2023-05-03T14:16:36.413Z,100862.79
2023-05-03T14:19:06.593Z,100863.98
2023-05-03T14:21:33.534Z,100861.52
2023-05-03T14:24:00.731Z,100860.13
2023-05-03T14:26:29.625Z,100860.20
2023-05-03T14:28:56.604Z,100856.48
2023-05-03T14:31:23.411Z,100857.90
2023-05-03T14:33:50.295Z,100854.38
2023-05-03T14:36:17.141Z,100852.98
2023-05-03T14:38:43.923Z,100853.48
2023-05-03T14:41:11.145Z,100850.41
2023-05-03T14:43:37.941Z,100849.04
2023-05-03T14:46:04.949Z,100849.99
2023-05-03T14:48:31.918Z,100850.67
2023-05-03T14:50:59.543Z,100853.05
2023-05-03T14:53:26.347Z,100847.67
2023-05-03T14:55:54.647Z,100843.58
2023-05-03T14:58:21.955Z,100844.85
2023-05-03T15:00:49.374Z,100846.42
2023-05-03T15:03:16.362Z,100845.75
2023-05-03T15:05:47.016Z,100845.54
2023-05-03T15:08:17.630Z,100840.91
2023-05-03T15:10:44.892Z,100842.81
2023-05-03T15:13:12.492Z,100842.94
2023-05-03T15:15:39.731Z,100843.17
2023-05-03T15:18:07.032Z,100841.16
2023-05-03T15:20:33.936Z,100841.78
2023-05-03T15:23:00.874Z,100840.85
2023-05-03T15:25:27.846Z,100840.48
2023-05-03T15:27:54.677Z,100845.17
2023-05-03T15:30:21.474Z,100847.41
2023-05-03T15:32:48.297Z,100848.85
2023-05-03T15:35:15.220Z,100853.05
2023-05-03T15:37:42.266Z,100853.77
2023-05-03T15:40:09.560Z,100851.08
2023-05-03T15:42:39.660Z,100852.63
2023-05-03T15:45:07.109Z,100850.17
2023-05-03T15:47:34.137Z,100853.85
2023-05-03T15:50:02.502Z,100857.80
2023-05-03T15:52:29.497Z,100858.42
2023-05-03T15:54:56.475Z,100859.80
2023-05-03T15:57:23.627Z,100861.05
2023-05-03T15:59:50.404Z,100862.19
2023-05-03T16:02:17.179Z,100864.39
2023-05-03T16:04:44.029Z,100867.22
2023-05-03T16:07:11.444Z,100866.53
2023-05-03T16:09:38.248Z,100867.55
2023-05-03T16:12:05.093Z,100869.92
2023-05-03T16:14:33.076Z,100867.12
2023-05-03T16:17:00.434Z,100865.59
2023-05-03T16:19:27.285Z,100869.46
2023-05-03T16:21:54.339Z,100872.61
2023-05-03T16:24:21.628Z,100871.73
2023-05-03T16:26:48.576Z,100872.84
2023-05-03T16:29:16.115Z,100872.06
2023-05-03T16:31:43.564Z,100873.38
2023-05-03T16:34:10.728Z,100872.39
2023-05-03T16:36:42.878Z,100874.52
2023-05-03T16:39:10.772Z,100875.26
2023-05-03T16:41:38.141Z,100876.80
2023-05-03T16:44:05.306Z,100876.55
2023-05-03T16:46:33.076Z,100874.30
2023-05-03T16:48:59.900Z,100872.45
2023-05-03T16:51:28.078Z,100875.02
2023-05-03T16:53:54.855Z,100872.83
2023-05-03T16:56:22.393Z,100876.45
2023-05-03T16:58:50.108Z,100875.20
2023-05-03T17:01:17.115Z,100877.44
2023-05-03T17:03:43.952Z,100878.06
2023-05-03T17:06:11.152Z,100878.98
2023-05-03T17:08:37.928Z,100878.42
2023-05-03T17:11:09.131Z,100879.98
2023-05-03T17:13:36.422Z,100878.27
2023-05-03T17:16:10.263Z,100880.03
2023-05-03T17:18:37.680Z,100884.06
2023-05-03T17:21:04.894Z,100883.77
2023-05-03T17:23:36.033Z,100888.40
2023-05-03T17:26:04.100Z,100889.91
2023-05-03T17:28:31.799Z,100895.16
2023-05-03T17:30:58.939Z,100894.02
2023-05-03T17:33:26.186Z,100891.66
2023-05-03T17:35:53.329Z,100892.20
2023-05-03T17:38:20.157Z,100895.79
2023-05-03T17:40:47.352Z,100899.64
2023-05-03T17:43:16.695Z,100898.39
2023-05-03T17:45:44.420Z,100900.70
2023-05-03T17:48:12.224Z,100901.91
2023-05-03T17:50:38.963Z,100899.25
2023-05-03T17:53:06.093Z,100902.66
2023-05-03T17:55:36.767Z,100900.39
2023-05-03T17:58:03.790Z,100900.99
2023-05-03T18:00:30.565Z,100901.71
2023-05-03T18:02:57.672Z,100900.70
2023-05-03T18:05:24.744Z,100899.59
2023-05-03T18:07:51.788Z,100899.67
2023-05-03T18:10:18.744Z,100900.18
2023-05-03T18:12:45.688Z,100902.13
2023-05-03T18:15:12.662Z,100900.41
2023-05-03T18:17:39.581Z,100901.73
2023-05-03T18:20:07.102Z,100899.73
2023-05-03T18:22:34.107Z,100896.94
2023-05-03T18:25:02.366Z,100901.61
2023-05-03T18:27:29.252Z,100901.45
2023-05-03T18:29:56.326Z,100900.67
2023-05-03T18:32:23.652Z,100901.04
2023-05-03T18:34:50.511Z,100901.45
2023-05-03T18:37:17.868Z,100902.76
2023-05-03T18:39:44.709Z,100898.71
2023-05-03T18:42:12.985Z,100901.16
2023-05-03T18:44:39.802Z,100902.10
2023-05-03T18:47:07.755Z,100899.23
2023-05-03T18:49:34.624Z,100901.08
2023-05-03T18:52:02.635Z,100895.97
2023-05-03T18:54:29.480Z,100896.15
2023-05-03T18:56:56.426Z,100896.63
2023-05-03T18:59:23.275Z,100898.92
2023-05-03T19:01:50.977Z,100894.17
2023-05-03T19:04:17.841Z,100895.21
2023-05-03T19:06:44.750Z,100893.82
2023-05-03T19:09:12.125Z,100895.80
2023-05-03T19:11:42.942Z,100896.65
2023-05-03T19:14:09.792Z,100895.21
2023-05-03T19:16:37.036Z,100892.67
2023-05-03T19:19:03.923Z,100889.05
2023-05-03T19:21:31.782Z,100895.66
2023-05-03T19:23:58.612Z,100891.36
2023-05-03T19:26:25.464Z,100893.38
2023-05-03T19:28:52.245Z,100892.19
2023-05-03T19:31:19.439Z,100892.83
2023-05-03T19:33:46.563Z,100892.33
2023-05-03T19:36:13.710Z,100893.77
2023-05-03T19:38:40.628Z,100893.90
2023-05-03T19:41:12.170Z,100894.34
2023-05-03T19:43:39.759Z,100892.56
2023-05-03T19:46:06.641Z,100890.28
2023-05-03T19:48:33.753Z,100890.23
2023-05-03T19:51:00.706Z,100890.54
2023-05-03T19:53:28.100Z,100892.77
2023-05-03T19:56:04.125Z,100890.48
2023-05-03T19:58:32.195Z,100892.69
2023-05-03T20:00:59.683Z,100893.13
2023-05-03T20:03:27.712Z,100892.62
2023-05-03T20:05:54.692Z,100890.31
2023-05-03T20:08:21.540Z,100891.61
2023-05-03T20:10:50.023Z,100889.13
2023-05-03T20:13:17.258Z,100888.85
2023-05-03T20:15:44.319Z,100888.00
2023-05-03T20:18:11.283Z,100887.73
2023-05-03T20:20:38.131Z,100887.75
2023-05-03T20:23:04.981Z,100885.50
2023-05-03T20:25:31.934Z,100882.98
2023-05-03T20:27:58.694Z,100882.80
2023-05-03T20:30:25.533Z,100882.10
2023-05-03T20:32:52.515Z,100884.77
2023-05-03T20:35:19.628Z,100888.99
2023-05-03T20:37:46.482Z,100888.20
2023-05-03T20:40:13.313Z,100890.08
2023-05-03T20:42:40.038Z,100886.66
2023-05-03T20:45:07.568Z,100885.98
2023-05-03T20:47:34.386Z,100885.05
2023-05-03T20:50:02.113Z,100882.20
2023-05-03T20:52:29.306Z,100884.34
2023-05-03T20:54:56.153Z,100880.45
2023-05-03T20:57:23.001Z,100879.79
2023-05-03T20:59:49.851Z,100881.11
2023-05-03T21:02:16.943Z,100876.37
2023-05-03T21:04:43.961Z,100878.17
2023-05-03T21:07:10.910Z,100875.29
2023-05-03T21:09:38.475Z,100871.70
2023-05-03T21:12:05.623Z,100871.95
2023-05-03T21:14:32.422Z,100870.19
2023-05-03T21:16:59.343Z,100869.63
2023-05-03T21:19:26.166Z,100868.52
2023-05-03T21:21:53.634Z,100870.17
2023-05-03T21:24:20.710Z,100869.64
2023-05-03T21:26:47.660Z,100869.66
2023-05-03T21:29:14.483Z,100869.69
2023-05-03T21:31:41.701Z,100870.10
2023-05-03T21:34:08.653Z,100869.45
2023-05-03T21:36:35.573Z,100869.20
2023-05-03T21:39:02.738Z,100868.39
2023-05-03T21:41:29.528Z,100871.11
2023-05-03T21:43:56.436Z,100872.14
2023-05-03T21:46:23.261Z,100870.50
2023-05-03T21:48:50.188Z,100865.08
2023-05-03T21:51:20.616Z,100863.73
2023-05-03T21:53:47.669Z,100860.89
2023-05-03T21:56:15.167Z,100862.10
2023-05-03T21:58:44.458Z,100862.23
2023-05-03T22:01:11.920Z,100866.19
2023-05-03T22:03:40.072Z,100866.02
2023-05-03T22:06:07.644Z,100863.52
2023-05-03T22:08:34.437Z,100862.71
2023-05-03T22:11:04.104Z,100864.38
2023-05-03T22:13:30.961Z,100863.83
2023-05-03T22:16:02.979Z,100865.27
2023-05-03T22:18:29.766Z,100868.05
2023-05-03T22:20:56.813Z,100866.17
2023-05-03T22:23:23.663Z,100867.38
2023-05-03T22:25:50.413Z,100863.98
2023-05-03T22:28:17.296Z,100862.43
2023-05-03T22:30:44.475Z,100865.34
2023-05-03T22:33:11.510Z,100858.84
2023-05-03T22:35:38.436Z,100860.42
2023-05-03T22:38:05.434Z,100862.41
2023-05-03T22:40:32.375Z,100865.70
2023-05-03T22:42:59.243Z,100860.73
2023-05-03T22:45:26.456Z,100859.59
2023-05-03T22:47:53.255Z,100862.78
2023-05-03T22:50:20.376Z,100858.42
2023-05-03T22:52:47.233Z,100856.64
2023-05-03T22:55:14.136Z,100858.63
2023-05-03T22:57:40.984Z,100861.38
2023-05-03T23:00:09.049Z,100863.62
2023-05-03T23:02:35.991Z,100861.16
2023-05-03T23:05:02.952Z,100862.33
2023-05-03T23:07:29.709Z,100861.80
2023-05-03T23:10:03.217Z,100861.55
2023-05-03T23:12:30.458Z,100860.33
2023-05-03T23:14:57.278Z,100857.63
2023-05-03T23:17:24.194Z,100860.90
2023-05-03T23:19:51.004Z,100865.58
2023-05-03T23:22:18.256Z,100873.38
2023-05-03T23:24:45.101Z,100865.91
2023-05-03T23:27:13.221Z,100865.23
2023-05-03T23:29:40.696Z,100856.23
2023-05-03T23:32:08.049Z,100855.32
2023-05-03T23:34:35.364Z,100854.01
2023-05-03T23:37:02.217Z,100849.23
2023-05-03T23:39:28.988Z,100846.95
2023-05-03T23:41:55.764Z,100841.45
2023-05-03T23:44:22.657Z,100837.30
2023-05-03T23:46:49.429Z,100837.73
2023-05-03T23:49:16.203Z,100837.05
2023-05-03T23:51:43.105Z,100837.34
2023-05-03T23:54:09.962Z,100842.41
2023-05-03T23:56:36.795Z,100841.14
2023-05-03T23:59:03.991Z,100843.92
